createdAt,value
2023-03-10T00:01:18.932Z,7.89
2023-03-10T00:03:46.271Z,7.85
2023-03-10T00:06:15.554Z,7.81
2023-03-10T00:08:42.730Z,7.80
2023-03-10T00:11:10.119Z,7.86
2023-03-10T00:13:36.702Z,7.65
2023-03-10T00:16:03.568Z,7.69
2023-03-10T00:18:30.092Z,7.67
2023-03-10T00:20:56.584Z,7.67
2023-03-10T00:23:23.416Z,7.63
2023-03-10T00:26:00.606Z,7.58
2023-03-10T00:28:27.932Z,7.71
2023-03-10T00:31:06.719Z,7.64
2023-03-10T00:33:34.945Z,7.63
2023-03-10T00:36:13.771Z,7.71
2023-03-10T00:38:41.723Z,7.73
2023-03-10T00:41:13.199Z,7.82
2023-03-10T00:43:40.191Z,7.76
2023-03-10T00:46:07.259Z,7.71
2023-03-10T00:48:34.201Z,7.77
2023-03-10T00:51:01.097Z,7.73
2023-03-10T00:53:28.021Z,7.58
2023-03-10T00:56:00.211Z,7.61
2023-03-10T00:58:27.659Z,7.73
2023-03-10T01:00:54.763Z,7.80
2023-03-10T01:03:22.147Z,7.77
2023-03-10T01:05:53.250Z,7.65
2023-03-10T01:08:20.175Z,7.58
2023-03-10T01:10:48.185Z,7.72
2023-03-10T01:13:17.250Z,7.80
2023-03-10T01:15:48.653Z,7.77
2023-03-10T01:18:16.264Z,7.73
2023-03-10T01:20:43.027Z,7.75
2023-03-10T01:23:15.252Z,7.52
2023-03-10T01:25:42.644Z,7.55
2023-03-10T01:28:09.648Z,7.62
2023-03-10T01:30:37.371Z,7.59
2023-03-10T01:33:04.747Z,7.60
2023-03-10T01:35:31.358Z,7.65
2023-03-10T01:37:58.534Z,7.50
2023-03-10T01:40:26.687Z,7.54
2023-03-10T01:43:13.571Z,7.64
2023-03-10T01:45:39.987Z,7.62
2023-03-10T01:48:06.464Z,7.70
2023-03-10T01:50:32.941Z,7.59
2023-03-10T01:52:59.442Z,7.57
2023-03-10T01:55:31.116Z,7.62
2023-03-10T01:57:58.129Z,7.49
2023-03-10T02:00:27.895Z,7.58
2023-03-10T02:03:24.590Z,7.64
2023-03-10T02:05:58.399Z,7.56
2023-03-10T02:08:29.773Z,7.47
2023-03-10T02:10:57.576Z,7.54
2023-03-10T02:13:24.028Z,7.54
2023-03-10T02:15:50.647Z,7.58
2023-03-10T02:18:19.601Z,7.55
2023-03-10T02:21:00.672Z,7.51
2023-03-10T02:24:00.892Z,7.52
2023-03-10T02:26:55.326Z,7.61
2023-03-10T02:29:30.020Z,7.65
2023-03-10T02:31:58.432Z,7.62
2023-03-10T02:34:26.659Z,7.69
2023-03-10T02:36:53.389Z,7.63
2023-03-10T02:39:19.967Z,7.58
2023-03-10T02:41:46.651Z,7.56
2023-03-10T02:44:19.132Z,7.58
2023-03-10T02:46:45.762Z,7.40
2023-03-10T02:49:12.718Z,7.45
2023-03-10T02:51:46.109Z,7.50
2023-03-10T02:54:15.529Z,7.43
2023-03-10T02:56:42.891Z,7.47
2023-03-10T02:59:11.836Z,7.48
2023-03-10T03:01:43.366Z,7.35
2023-03-10T03:04:09.874Z,7.45
2023-03-10T03:06:36.835Z,7.50
2023-03-10T03:09:04.342Z,7.37
2023-03-10T03:11:31.503Z,7.50
2023-03-10T03:13:58.806Z,7.49
2023-03-10T03:16:26.132Z,7.56
2023-03-10T03:18:57.226Z,7.51
2023-03-10T03:21:24.499Z,7.52
2023-03-10T03:23:52.547Z,7.50
2023-03-10T03:26:23.242Z,7.46
2023-03-10T03:28:53.271Z,7.45
2023-03-10T03:31:25.472Z,7.47
2023-03-10T03:34:00.703Z,7.46
2023-03-10T03:36:27.430Z,7.47
2023-03-10T03:38:54.191Z,7.49
2023-03-10T03:41:20.874Z,7.55
2023-03-10T03:43:47.760Z,7.57
2023-03-10T03:46:14.409Z,7.51
2023-03-10T03:48:41.167Z,7.54
2023-03-10T03:51:09.705Z,7.52
2023-03-10T03:53:40.314Z,7.55
2023-03-10T03:56:08.267Z,7.46
2023-03-10T03:58:37.153Z,7.39
2023-03-10T04:01:03.909Z,7.44
2023-03-10T04:03:35.977Z,7.26
2023-03-10T04:06:02.879Z,7.24
2023-03-10T04:08:29.884Z,7.30
2023-03-10T04:10:56.429Z,7.24
2023-03-10T04:13:25.937Z,7.17
2023-03-10T04:15:57.129Z,7.16
2023-03-10T04:18:25.088Z,7.25
2023-03-10T04:20:51.565Z,7.25
2023-03-10T04:23:19.606Z,7.29
2023-03-10T04:25:46.513Z,7.20
2023-03-10T04:28:14.680Z,7.21
2023-03-10T04:30:43.153Z,7.26
2023-03-10T04:33:11.991Z,7.48
2023-03-10T04:35:44.098Z,7.44
2023-03-10T04:38:13.402Z,7.33
2023-03-10T04:40:39.957Z,7.47
2023-03-10T04:43:06.492Z,7.36
2023-03-10T04:45:33.130Z,7.43
2023-03-10T04:47:59.579Z,7.47
2023-03-10T04:50:26.328Z,7.44
2023-03-10T04:52:53.628Z,7.43
2023-03-10T04:55:24.360Z,7.42
2023-03-10T04:57:52.121Z,7.44
2023-03-10T05:00:20.011Z,7.39
2023-03-10T05:02:46.718Z,7.28
2023-03-10T05:05:13.472Z,7.26
2023-03-10T05:07:43.743Z,7.21
2023-03-10T05:10:11.258Z,7.22
2023-03-10T05:12:38.886Z,7.26
2023-03-10T05:15:06.191Z,7.23
2023-03-10T05:17:33.089Z,7.37
2023-03-10T05:20:00.688Z,7.34
2023-03-10T05:22:27.611Z,7.35
2023-03-10T05:24:54.435Z,7.33
2023-03-10T05:27:22.116Z,7.37
2023-03-10T05:29:50.679Z,7.33
2023-03-10T05:32:21.278Z,7.36
2023-03-10T05:34:48.762Z,7.19
2023-03-10T05:37:15.571Z,7.40
2023-03-10T05:39:43.820Z,7.36
2023-03-10T05:42:15.380Z,7.33
2023-03-10T05:44:42.617Z,7.37
2023-03-10T05:47:09.910Z,7.45
2023-03-10T05:49:38.596Z,7.45
2023-03-10T05:52:06.376Z,7.45
2023-03-10T05:54:32.943Z,7.55
2023-03-10T05:56:59.376Z,7.60
2023-03-10T05:59:31.274Z,7.60
2023-03-10T06:01:58.200Z,7.56
2023-03-10T06:04:25.366Z,7.43
2023-03-10T06:06:52.009Z,7.40
2023-03-10T06:09:18.392Z,7.52
2023-03-10T06:11:44.825Z,7.47
2023-03-10T06:14:11.355Z,7.46
2023-03-10T06:16:37.779Z,7.54
2023-03-10T06:19:04.201Z,7.56
2023-03-10T06:21:30.705Z,7.59
2023-03-10T06:23:57.656Z,7.56
2023-03-10T06:26:24.326Z,7.40
2023-03-10T06:28:50.918Z,7.44
2023-03-10T06:31:20.600Z,7.46
2023-03-10T06:33:47.571Z,7.45
2023-03-10T06:36:15.368Z,7.50
2023-03-10T06:38:41.898Z,7.58
2023-03-10T06:41:08.984Z,7.65
2023-03-10T06:43:36.159Z,7.77
2023-03-10T06:46:04.383Z,7.81
2023-03-10T06:48:31.351Z,7.73
2023-03-10T06:50:58.035Z,7.72
2023-03-10T06:53:24.684Z,7.86
2023-03-10T06:56:06.970Z,7.84
2023-03-10T06:58:35.448Z,7.60
2023-03-10T07:01:02.570Z,7.69
2023-03-10T07:03:29.351Z,7.69
2023-03-10T07:05:59.658Z,7.70
2023-03-10T07:08:27.707Z,7.67
2023-03-10T07:10:55.523Z,7.69
2023-03-10T07:13:22.148Z,7.65
2023-03-10T07:15:49.838Z,7.66
2023-03-10T07:18:16.714Z,7.64
2023-03-10T07:20:52.965Z,7.71
2023-03-10T07:23:19.970Z,7.76
2023-03-10T07:25:46.502Z,7.59
2023-03-10T07:28:13.036Z,7.55
2023-03-10T07:30:39.914Z,7.55
2023-03-10T07:33:06.330Z,7.78
2023-03-10T07:35:35.363Z,8.09
2023-03-10T07:38:03.833Z,7.99
2023-03-10T07:40:30.503Z,7.96
2023-03-10T07:42:57.031Z,7.88
2023-03-10T07:45:26.404Z,7.84
2023-03-10T07:47:54.361Z,7.84
2023-03-10T07:50:21.886Z,7.80
2023-03-10T07:52:48.647Z,7.84
2023-03-10T07:55:15.064Z,7.86
2023-03-10T07:57:41.680Z,7.79
2023-03-10T08:00:08.844Z,7.48
2023-03-10T08:02:41.664Z,7.48
2023-03-10T08:05:09.682Z,7.36
2023-03-10T08:07:37.964Z,7.51
2023-03-10T08:10:05.370Z,7.47
2023-03-10T08:12:31.877Z,7.39
2023-03-10T08:14:58.329Z,7.51
2023-03-10T08:17:30.573Z,7.40
2023-03-10T08:19:58.477Z,7.34
2023-03-10T08:22:25.576Z,7.29
2023-03-10T08:24:52.046Z,7.53
2023-03-10T08:27:18.990Z,7.73
2023-03-10T08:29:45.401Z,8.22
2023-03-10T08:32:12.353Z,8.32
2023-03-10T08:34:38.905Z,8.87
2023-03-10T08:37:05.652Z,8.77
2023-03-10T08:39:32.112Z,8.74
2023-03-10T08:41:58.731Z,8.65
2023-03-10T08:44:25.283Z,8.58
2023-03-10T08:46:52.457Z,8.66
2023-03-10T08:49:21.232Z,8.36
2023-03-10T08:51:48.556Z,8.25
2023-03-10T08:54:18.200Z,8.22
2023-03-10T08:56:44.760Z,8.18
2023-03-10T08:59:11.276Z,8.17
2023-03-10T09:01:38.340Z,7.88
2023-03-10T09:04:07.164Z,7.83
2023-03-10T09:06:34.531Z,7.77
2023-03-10T09:09:01.242Z,7.74
2023-03-10T09:11:31.549Z,7.79
2023-03-10T09:13:58.984Z,7.74
2023-03-10T09:16:26.252Z,7.77
2023-03-10T09:18:52.894Z,7.78
2023-03-10T09:21:20.305Z,7.75
2023-03-10T09:23:48.559Z,7.71
2023-03-10T09:26:15.881Z,7.68
2023-03-10T09:28:42.595Z,7.55
2023-03-10T09:31:10.496Z,7.71
2023-03-10T09:33:38.409Z,7.77
2023-03-10T09:36:06.752Z,7.71
2023-03-10T09:38:33.788Z,7.68
2023-03-10T09:41:28.796Z,7.67
2023-03-10T09:44:34.195Z,7.85
2023-03-10T09:47:23.990Z,7.84
2023-03-10T09:50:10.213Z,7.80
2023-03-10T09:52:45.902Z,7.72
2023-03-10T09:55:25.509Z,7.80
2023-03-10T09:57:54.649Z,7.81
2023-03-10T10:00:27.074Z,7.60
2023-03-10T10:03:22.429Z,7.79
2023-03-10T10:05:52.861Z,8.02
2023-03-10T10:08:26.060Z,8.14
2023-03-10T10:10:59.090Z,8.10
2023-03-10T10:13:29.803Z,7.89
2023-03-10T10:16:24.670Z,8.08
2023-03-10T10:19:17.570Z,8.22
2023-03-10T10:22:07.024Z,8.27
2023-03-10T10:24:33.675Z,8.27
2023-03-10T10:27:00.097Z,8.36
2023-03-10T10:29:34.739Z,8.41
2023-03-10T10:32:02.820Z,8.26
2023-03-10T10:34:29.845Z,8.10
2023-03-10T10:36:56.654Z,8.17
2023-03-10T10:39:28.353Z,8.23
2023-03-10T10:41:55.090Z,8.27
2023-03-10T10:44:21.543Z,8.29
2023-03-10T10:46:53.083Z,8.27
2023-03-10T10:49:23.814Z,8.15
2023-03-10T10:52:00.004Z,8.19
2023-03-10T10:54:39.033Z,8.37
2023-03-10T10:57:17.793Z,8.17
2023-03-10T10:59:44.283Z,8.24
2023-03-10T11:02:22.615Z,8.11
2023-03-10T11:04:49.301Z,8.29
2023-03-10T11:07:27.042Z,8.34
2023-03-10T11:09:56.719Z,8.47
2023-03-10T11:12:32.102Z,8.29
2023-03-10T11:15:15.959Z,8.31
2023-03-10T11:17:42.983Z,8.14
2023-03-10T11:20:29.768Z,8.18
2023-03-10T11:23:06.404Z,8.16
2023-03-10T11:25:51.211Z,8.04
2023-03-10T11:28:40.666Z,8.10
2023-03-10T11:31:49.884Z,7.77
2023-03-10T11:34:22.237Z,8.01
2023-03-10T11:37:14.341Z,8.00
2023-03-10T11:39:41.562Z,8.03
2023-03-10T11:42:16.924Z,8.09
2023-03-10T11:45:00.362Z,7.92
2023-03-10T11:47:56.816Z,7.83
2023-03-10T11:50:47.870Z,7.85
2023-03-10T11:53:42.322Z,8.06
2023-03-10T11:56:12.520Z,7.94
2023-03-10T11:58:57.460Z,7.94
2023-03-10T12:01:34.270Z,7.95
2023-03-10T12:04:14.650Z,7.77
2023-03-10T12:07:03.739Z,7.88
2023-03-10T12:09:50.574Z,7.66
2023-03-10T12:12:27.221Z,7.77
2023-03-10T12:14:54.818Z,7.57
2023-03-10T12:17:21.404Z,7.64
2023-03-10T12:20:12.978Z,7.69
2023-03-10T12:22:46.337Z,7.88
2023-03-10T12:25:27.722Z,8.00
2023-03-10T12:28:24.816Z,7.76
2023-03-10T12:31:23.627Z,7.82
2023-03-10T12:33:52.334Z,7.66
2023-03-10T12:36:22.020Z,7.75
2023-03-10T12:39:01.638Z,7.80
2023-03-10T12:41:28.036Z,7.76
2023-03-10T12:43:59.404Z,7.64
2023-03-10T12:47:04.105Z,7.52
2023-03-10T12:49:46.013Z,7.64
2023-03-10T12:52:37.288Z,7.64
2023-03-10T12:55:15.911Z,7.60
2023-03-10T12:58:30.672Z,7.64
2023-03-10T13:01:03.891Z,7.76
2023-03-10T13:03:35.529Z,7.88
2023-03-10T13:06:20.912Z,7.64
2023-03-10T13:08:54.735Z,7.83
2023-03-10T13:11:34.370Z,7.98
2023-03-10T13:14:10.619Z,7.99
2023-03-10T13:16:37.370Z,7.94
2023-03-10T13:19:04.208Z,7.98
2023-03-10T13:21:38.547Z,8.02
2023-03-10T13:24:36.190Z,7.88
2023-03-10T13:27:19.999Z,7.95
2023-03-10T13:29:58.332Z,7.71
2023-03-10T13:32:26.320Z,7.52
2023-03-10T13:34:53.223Z,7.39
2023-03-10T13:37:19.724Z,7.30
2023-03-10T13:39:47.219Z,7.23
2023-03-10T13:42:28.267Z,7.29
2023-03-10T13:44:57.873Z,7.21
2023-03-10T13:47:26.599Z,7.29
2023-03-10T13:49:55.412Z,7.27
2023-03-10T13:52:25.483Z,7.30
2023-03-10T13:54:52.627Z,7.27
2023-03-10T13:57:26.377Z,7.17
2023-03-10T13:59:54.510Z,7.07
2023-03-10T14:02:23.762Z,7.12
2023-03-10T14:04:52.164Z,7.21
2023-03-10T14:07:25.151Z,7.24
2023-03-10T14:10:03.550Z,7.29
2023-03-10T14:12:52.542Z,7.08
2023-03-10T14:15:18.994Z,7.23
2023-03-10T14:18:07.107Z,7.28
2023-03-10T14:20:36.635Z,7.35
2023-03-10T14:23:18.051Z,7.02
2023-03-10T14:25:46.170Z,6.95
2023-03-10T14:30:43.830Z,6.88
2023-03-10T14:33:15.806Z,6.73
2023-03-10T14:35:43.146Z,6.75
2023-03-10T14:38:09.645Z,6.67
2023-03-10T14:40:41.351Z,6.53
2023-03-10T14:43:15.763Z,6.33
2023-03-10T14:45:44.395Z,6.28
2023-03-10T14:48:19.949Z,6.15
2023-03-10T14:50:47.480Z,6.34
2023-03-10T14:53:19.653Z,6.27
2023-03-10T14:55:49.366Z,6.36
2023-03-10T14:58:20.324Z,6.16
2023-03-10T15:00:46.825Z,6.18
2023-03-10T15:03:13.602Z,5.99
2023-03-10T15:05:48.359Z,5.97
2023-03-10T15:08:16.252Z,6.11
2023-03-10T15:10:47.912Z,5.93
2023-03-10T15:13:15.283Z,5.94
2023-03-10T15:15:45.363Z,5.88
2023-03-10T15:18:13.511Z,6.03
2023-03-10T15:20:40.755Z,5.81
2023-03-10T15:23:08.740Z,5.89
2023-03-10T15:25:35.271Z,5.87
2023-03-10T15:28:01.828Z,5.80
2023-03-10T15:30:33.884Z,5.95
2023-03-10T15:33:01.121Z,5.67
2023-03-10T15:35:29.187Z,5.81
2023-03-10T15:37:56.508Z,5.92
2023-03-10T15:40:26.221Z,6.00
2023-03-10T15:42:55.600Z,5.94
2023-03-10T15:45:22.141Z,5.84
2023-03-10T15:47:48.918Z,5.87
2023-03-10T15:50:18.999Z,5.82
2023-03-10T15:52:47.309Z,5.87
2023-03-10T15:55:14.933Z,5.67
2023-03-10T15:57:41.759Z,5.62
2023-03-10T16:00:09.163Z,5.60
2023-03-10T16:02:35.658Z,5.74
2023-03-10T16:05:02.301Z,5.58
2023-03-10T16:07:28.796Z,5.77
2023-03-10T16:09:55.487Z,5.77
2023-03-10T16:12:23.278Z,5.80
2023-03-10T16:14:50.095Z,5.75
2023-03-10T16:17:16.799Z,5.67
2023-03-10T16:19:43.256Z,5.59
2023-03-10T16:22:10.385Z,5.64
2023-03-10T16:24:36.847Z,5.52
2023-03-10T16:27:03.505Z,5.53
2023-03-10T16:29:30.127Z,5.58
2023-03-10T16:31:56.718Z,5.63
2023-03-10T16:34:23.220Z,5.55
2023-03-10T16:36:50.566Z,5.59
2023-03-10T16:39:17.980Z,5.57
2023-03-10T16:41:44.687Z,5.56
2023-03-10T16:44:12.713Z,5.45
2023-03-10T16:46:39.639Z,5.44
2023-03-10T16:49:06.071Z,5.28
2023-03-10T16:51:38.158Z,5.15
2023-03-10T16:54:07.855Z,5.04
2023-03-10T16:56:43.688Z,5.19
2023-03-10T16:59:21.668Z,5.11
2023-03-10T17:01:49.880Z,5.12
2023-03-10T17:04:16.793Z,4.71
2023-03-10T17:06:43.646Z,4.89
2023-03-10T17:09:11.559Z,4.88
2023-03-10T17:11:40.812Z,4.93
2023-03-10T17:14:11.915Z,4.79
2023-03-10T17:16:38.668Z,4.74
2023-03-10T17:19:10.296Z,4.85
2023-03-10T17:21:39.304Z,4.98
2023-03-10T17:24:09.127Z,4.95
2023-03-10T17:26:36.814Z,4.79
2023-03-10T17:29:04.002Z,4.66
2023-03-10T17:31:31.073Z,4.58
2023-03-10T17:34:03.759Z,4.56
2023-03-10T17:36:31.074Z,4.52
2023-03-10T17:39:00.163Z,4.67
2023-03-10T17:41:27.963Z,4.64
2023-03-10T17:43:55.303Z,4.65
2023-03-10T17:46:24.573Z,4.63
2023-03-10T17:48:51.988Z,4.58
2023-03-10T17:51:23.904Z,4.72
2023-03-10T17:53:52.821Z,4.71
2023-03-10T17:56:20.146Z,4.68
2023-03-10T17:58:46.592Z,4.71
2023-03-10T18:01:19.266Z,4.64
2023-03-10T18:03:48.158Z,4.54
2023-03-10T18:06:21.020Z,4.49
2023-03-10T18:08:47.522Z,4.52
2023-03-10T18:11:14.306Z,4.31
2023-03-10T18:13:41.160Z,4.35
2023-03-10T18:16:10.530Z,4.21
2023-03-10T18:18:37.000Z,4.15
2023-03-10T18:21:03.553Z,3.85
2023-03-10T18:23:29.967Z,3.77
2023-03-10T18:25:56.415Z,3.70
2023-03-10T18:28:23.428Z,3.63
2023-03-10T18:30:51.793Z,3.72
2023-03-10T18:33:18.672Z,3.55
2023-03-10T18:35:46.674Z,3.46
2023-03-10T18:38:15.563Z,3.44
2023-03-10T18:40:43.313Z,3.21
2023-03-10T18:43:10.159Z,2.97
2023-03-10T18:45:39.352Z,2.92
2023-03-10T18:48:07.407Z,2.92
2023-03-10T18:50:33.915Z,2.74
2023-03-10T18:53:00.393Z,2.79
2023-03-10T18:55:27.031Z,2.66
2023-03-10T18:57:53.570Z,2.81
2023-03-10T19:00:21.338Z,2.64
2023-03-10T19:02:47.894Z,2.69
2023-03-10T19:05:15.345Z,2.68
2023-03-10T19:07:42.190Z,2.70
2023-03-10T19:10:12.397Z,2.74
2023-03-10T19:12:39.345Z,2.61
2023-03-10T19:15:08.997Z,2.19
2023-03-10T19:17:37.577Z,2.21
2023-03-10T19:20:07.526Z,2.17
2023-03-10T19:22:34.847Z,2.33
2023-03-10T19:25:03.435Z,2.23
2023-03-10T19:27:30.378Z,2.24
2023-03-10T19:29:57.495Z,1.93
2023-03-10T19:32:24.748Z,2.01
2023-03-10T19:34:51.296Z,2.29
2023-03-10T19:37:17.926Z,1.90
2023-03-10T19:39:44.545Z,1.97
2023-03-10T19:42:11.048Z,2.10
2023-03-10T19:44:40.673Z,2.37
2023-03-10T19:47:07.291Z,2.30
2023-03-10T19:49:34.169Z,2.06
2023-03-10T19:52:01.270Z,2.09
2023-03-10T19:54:27.935Z,2.06
2023-03-10T19:56:54.400Z,2.04
2023-03-10T19:59:21.057Z,1.65
2023-03-10T20:01:49.342Z,2.22
2023-03-10T20:04:15.922Z,2.35
2023-03-10T20:06:42.414Z,2.36
2023-03-10T20:09:10.718Z,2.39
2023-03-10T20:11:38.700Z,2.36
2023-03-10T20:14:05.633Z,2.45
2023-03-10T20:16:32.861Z,2.51
2023-03-10T20:18:59.414Z,2.47
2023-03-10T20:21:27.037Z,2.48
2023-03-10T20:23:55.977Z,2.31
2023-03-10T20:26:23.852Z,2.33
2023-03-10T20:28:50.885Z,2.38
2023-03-10T20:31:19.725Z,2.32
2023-03-10T20:33:46.454Z,2.31
2023-03-10T20:36:16.101Z,2.14
2023-03-10T20:38:44.205Z,2.34
2023-03-10T20:41:15.484Z,2.34
2023-03-10T20:43:43.137Z,2.26
2023-03-10T20:46:10.761Z,2.29
2023-03-10T20:48:37.390Z,2.01
2023-03-10T20:51:03.926Z,2.12
2023-03-10T20:53:37.183Z,2.11
2023-03-10T20:56:08.542Z,1.89
2023-03-10T20:58:35.074Z,2.15
2023-03-10T21:01:01.651Z,2.19
2023-03-10T21:03:28.217Z,2.26
2023-03-10T21:05:54.648Z,2.33
2023-03-10T21:08:21.129Z,2.22
2023-03-10T21:10:49.319Z,2.23
2023-03-10T21:13:15.921Z,2.10
2023-03-10T21:15:42.408Z,2.26
2023-03-10T21:18:08.894Z,2.37
2023-03-10T21:20:35.433Z,2.13
2023-03-10T21:23:01.962Z,2.28
2023-03-10T21:25:28.425Z,2.32
2023-03-10T21:27:58.664Z,2.40
2023-03-10T21:30:31.762Z,2.36
2023-03-10T21:32:58.603Z,2.42
2023-03-10T21:35:27.537Z,2.46
2023-03-10T21:37:55.478Z,2.33
2023-03-10T21:40:24.196Z,2.40
2023-03-10T21:42:51.125Z,2.39
2023-03-10T21:45:23.930Z,2.33
2023-03-10T21:47:50.472Z,2.30
2023-03-10T21:50:17.630Z,2.25
2023-03-10T21:52:44.768Z,2.22
2023-03-10T21:55:29.419Z,2.38
2023-03-10T21:57:56.968Z,2.41
2023-03-10T22:00:24.274Z,2.45
2023-03-10T22:02:52.141Z,2.36
2023-03-10T22:05:19.397Z,2.40
2023-03-10T22:07:45.971Z,2.43
2023-03-10T22:10:13.247Z,2.53
2023-03-10T22:12:40.248Z,2.55
2023-03-10T22:15:08.932Z,2.33
2023-03-10T22:17:35.322Z,2.32
2023-03-10T22:20:01.908Z,2.33
2023-03-10T22:22:28.353Z,2.19
2023-03-10T22:24:54.822Z,2.23
2023-03-10T22:27:21.268Z,2.24
2023-03-10T22:29:47.713Z,2.14
2023-03-10T22:32:14.152Z,2.06
2023-03-10T22:34:41.786Z,1.99
2023-03-10T22:37:10.219Z,1.91
2023-03-10T22:39:37.564Z,1.99
2023-03-10T22:42:04.801Z,2.14
2023-03-10T22:44:37.653Z,1.90
2023-03-10T22:47:05.050Z,1.44
2023-03-10T22:49:32.541Z,1.44
2023-03-10T22:51:59.110Z,1.56
2023-03-10T22:54:25.765Z,1.30
2023-03-10T22:56:52.247Z,1.18
2023-03-10T22:59:18.718Z,0.92
2023-03-10T23:01:45.292Z,0.99
2023-03-10T23:04:11.802Z,0.99
2023-03-10T23:06:38.211Z,0.73
2023-03-10T23:09:05.393Z,0.91
2023-03-10T23:11:31.857Z,1.05
2023-03-10T23:14:01.739Z,0.84
2023-03-10T23:16:28.323Z,0.88
2023-03-10T23:18:54.773Z,0.81
2023-03-10T23:21:21.511Z,0.73
2023-03-10T23:23:48.726Z,0.68
2023-03-10T23:26:15.646Z,0.69
2023-03-10T23:28:42.081Z,0.74
2023-03-10T23:31:08.683Z,0.92
2023-03-10T23:33:35.231Z,1.06
2023-03-10T23:36:01.669Z,0.97
2023-03-10T23:38:28.316Z,0.98
2023-03-10T23:40:55.494Z,1.02
2023-03-10T23:43:22.573Z,1.10
2023-03-10T23:45:49.392Z,1.11
2023-03-10T23:48:18.211Z,1.21
2023-03-10T23:50:46.911Z,1.24
2023-03-10T23:53:15.006Z,1.16
2023-03-10T23:55:46.542Z,1.28
2023-03-10T23:58:15.455Z,1.24
